createdAt,value
2023-04-23T00:00:33.126Z,11.73
2023-04-23T00:03:31.389Z,12.06
2023-04-23T00:06:08.901Z,12.20
2023-04-23T00:08:48.942Z,11.89
2023-04-23T00:11:22.933Z,11.54
2023-04-23T00:14:04.280Z,11.26
2023-04-23T00:16:39.044Z,11.04
2023-04-23T00:19:13.066Z,10.89
2023-04-23T00:22:17.193Z,10.76
2023-04-23T00:24:51.912Z,10.61
2023-04-23T00:27:26.324Z,10.49
2023-04-23T00:30:07.058Z,10.37
2023-04-23T00:32:41.572Z,10.27
2023-04-23T00:35:21.115Z,10.18
2023-04-23T00:38:03.554Z,10.12
2023-04-23T00:40:37.694Z,10.06
2023-04-23T00:43:12.375Z,10.11
2023-04-23T00:45:46.765Z,10.58
2023-04-23T00:48:20.829Z,11.06
2023-04-23T00:50:56.980Z,11.41
2023-04-23T00:53:31.093Z,11.67
2023-04-23T00:56:07.568Z,11.87
2023-04-23T00:58:41.979Z,11.96
2023-04-23T01:01:22.573Z,11.65
2023-04-23T01:03:57.195Z,11.29
2023-04-23T01:06:36.501Z,11.00
2023-04-23T01:09:13.959Z,10.75
2023-04-23T01:11:58.246Z,10.54
2023-04-23T01:14:37.390Z,10.32
2023-04-23T01:17:19.575Z,10.10
2023-04-23T01:20:04.946Z,9.98
2023-04-23T01:23:04.355Z,10.36
2023-04-23T01:25:45.226Z,10.74
2023-04-23T01:28:27.176Z,11.03
2023-04-23T01:31:17.955Z,11.25
2023-04-23T01:33:57.151Z,11.43
2023-04-23T01:36:43.373Z,11.59
2023-04-23T01:39:31.994Z,11.70
2023-04-23T01:42:11.837Z,11.79
2023-04-23T01:44:47.897Z,11.89
2023-04-23T01:47:26.930Z,11.95
2023-04-23T01:50:13.116Z,11.88
2023-04-23T01:52:51.781Z,11.35
2023-04-23T01:55:43.225Z,10.82
2023-04-23T01:58:19.209Z,10.40
2023-04-23T02:00:59.873Z,10.11
2023-04-23T02:03:47.316Z,9.87
2023-04-23T02:06:30.828Z,9.65
2023-04-23T02:09:08.421Z,9.52
2023-04-23T02:11:57.893Z,9.52
2023-04-23T02:14:34.877Z,10.00
2023-04-23T02:17:26.822Z,10.46
2023-04-23T02:20:03.677Z,10.78
2023-04-23T02:22:41.203Z,11.06
2023-04-23T02:25:31.051Z,11.29
2023-04-23T02:28:08.553Z,11.50
2023-04-23T02:30:55.275Z,11.66
2023-04-23T02:33:39.003Z,11.74
2023-04-23T02:36:23.338Z,11.39
2023-04-23T02:39:05.847Z,11.00
2023-04-23T02:41:56.961Z,10.72
2023-04-23T02:44:33.725Z,10.47
2023-04-23T02:47:25.422Z,10.30
2023-04-23T02:50:19.947Z,10.15
2023-04-23T02:53:01.320Z,10.02
2023-04-23T02:55:38.407Z,9.92
2023-04-23T02:58:30.228Z,9.92
2023-04-23T03:01:13.102Z,10.38
2023-04-23T03:03:50.438Z,10.84
2023-04-23T03:06:52.112Z,11.25
2023-04-23T03:09:43.915Z,11.56
2023-04-23T03:12:13.328Z,11.82
2023-04-23T03:15:02.899Z,12.06
2023-04-23T03:17:56.170Z,12.16
2023-04-23T03:21:14.301Z,11.73
2023-04-23T03:23:56.463Z,11.29
2023-04-23T03:26:35.517Z,11.02
2023-04-23T03:29:14.139Z,10.79
2023-04-23T03:32:08.443Z,10.58
2023-04-23T03:34:51.142Z,10.37
2023-04-23T03:37:41.220Z,10.21
2023-04-23T03:40:33.155Z,10.18
2023-04-23T03:43:15.965Z,10.61
2023-04-23T03:46:08.532Z,11.08
2023-04-23T03:48:53.884Z,11.43
2023-04-23T03:51:59.329Z,11.74
2023-04-23T03:54:49.620Z,12.02
2023-04-23T03:57:43.200Z,12.14
2023-04-23T04:00:39.419Z,11.68
2023-04-23T04:03:46.205Z,11.31
2023-04-23T04:06:38.025Z,10.97
2023-04-23T04:09:22.270Z,10.73
2023-04-23T04:12:15.201Z,10.55
2023-04-23T04:14:57.530Z,10.39
2023-04-23T04:17:53.201Z,10.40
2023-04-23T04:20:44.458Z,10.89
2023-04-23T04:23:47.250Z,11.38
2023-04-23T04:26:39.487Z,11.75
2023-04-23T04:29:13.508Z,12.04
2023-04-23T04:31:45.099Z,12.29
2023-04-23T04:34:23.868Z,12.49
2023-04-23T04:37:01.552Z,12.57
2023-04-23T04:39:41.821Z,12.26
2023-04-23T04:42:13.360Z,11.91
2023-04-23T04:44:47.165Z,11.66
2023-04-23T04:47:16.475Z,11.45
2023-04-23T04:49:47.720Z,11.29
2023-04-23T04:52:17.208Z,11.14
2023-04-23T04:54:51.116Z,11.09
2023-04-23T04:57:21.641Z,11.45
2023-04-23T04:59:52.793Z,11.89
2023-04-23T05:02:23.589Z,12.25
2023-04-23T05:04:55.272Z,12.64
2023-04-23T05:07:32.565Z,12.96
2023-04-23T05:10:01.347Z,13.15
2023-04-23T05:12:30.132Z,12.93
2023-04-23T05:15:09.895Z,12.66
2023-04-23T05:17:41.589Z,12.43
2023-04-23T05:20:11.238Z,12.30
2023-04-23T05:22:42.690Z,12.21
2023-04-23T05:25:15.076Z,12.13
2023-04-23T05:27:46.713Z,12.08
2023-04-23T05:30:15.704Z,12.04
2023-04-23T05:32:47.182Z,12.02
2023-04-23T05:35:16.553Z,12.02
2023-04-23T05:37:45.048Z,12.04
2023-04-23T05:40:13.819Z,12.06
2023-04-23T05:42:42.406Z,12.09
2023-04-23T05:45:11.577Z,12.15
2023-04-23T05:47:42.490Z,12.21
2023-04-23T05:50:11.943Z,12.28
2023-04-23T05:52:40.305Z,12.36
2023-04-23T05:55:10.143Z,12.43
2023-04-23T05:57:39.528Z,12.50
2023-04-23T06:00:17.322Z,12.56
2023-04-23T06:02:48.276Z,12.63
2023-04-23T06:05:17.049Z,12.69
2023-04-23T06:07:46.127Z,12.74
2023-04-23T06:10:20.252Z,12.80
2023-04-23T06:12:49.536Z,12.86
2023-04-23T06:15:21.193Z,12.93
2023-04-23T06:17:49.801Z,13.01
2023-04-23T06:20:21.125Z,13.10
2023-04-23T06:22:49.804Z,13.18
2023-04-23T06:25:20.769Z,13.29
2023-04-23T06:27:49.329Z,13.39
2023-04-23T06:30:21.507Z,13.49
2023-04-23T06:32:50.598Z,13.59
2023-04-23T06:35:19.267Z,13.69
2023-04-23T06:37:56.455Z,13.78
2023-04-23T06:40:25.139Z,13.88
2023-04-23T06:42:56.046Z,13.97
2023-04-23T06:45:57.317Z,14.10
2023-04-23T06:48:26.710Z,14.21
2023-04-23T06:50:55.402Z,14.33
2023-04-23T06:53:23.879Z,14.44
2023-04-23T06:55:52.460Z,14.54
2023-04-23T06:58:22.171Z,14.65
2023-04-23T07:00:50.720Z,14.76
2023-04-23T07:03:20.367Z,14.86
2023-04-23T07:05:49.464Z,14.96
2023-04-23T07:08:17.841Z,15.08
2023-04-23T07:10:48.537Z,15.19
2023-04-23T07:13:17.569Z,15.30
2023-04-23T07:15:46.676Z,15.42
2023-04-23T07:18:15.246Z,15.54
2023-04-23T07:20:43.624Z,15.64
2023-04-23T07:23:11.898Z,15.75
2023-04-23T07:25:40.379Z,15.85
2023-04-23T07:28:11.626Z,15.94
2023-04-23T07:30:40.155Z,16.03
2023-04-23T07:33:08.988Z,16.13
2023-04-23T07:35:37.577Z,16.21
2023-04-23T07:38:05.964Z,16.28
2023-04-23T07:40:34.422Z,16.36
2023-04-23T07:43:03.114Z,16.45
2023-04-23T07:45:31.599Z,16.55
2023-04-23T07:48:02.432Z,16.65
2023-04-23T07:50:31.117Z,16.74
2023-04-23T07:52:59.493Z,16.82
2023-04-23T07:55:27.875Z,16.92
2023-04-23T07:57:56.254Z,16.99
2023-04-23T08:00:24.639Z,17.07
2023-04-23T08:02:54.268Z,17.15
2023-04-23T08:05:22.702Z,17.24
2023-04-23T08:07:51.313Z,17.38
2023-04-23T08:10:19.665Z,17.51
2023-04-23T08:12:48.044Z,17.67
2023-04-23T08:15:16.434Z,17.86
2023-04-23T08:17:45.223Z,18.05
2023-04-23T08:20:13.582Z,18.24
2023-04-23T08:22:41.724Z,18.42
2023-04-23T08:25:10.334Z,18.60
2023-04-23T08:27:39.437Z,18.75
2023-04-23T08:30:09.038Z,18.87
2023-04-23T08:32:39.011Z,18.96
2023-04-23T08:35:08.441Z,19.07
2023-04-23T08:37:36.627Z,19.13
2023-04-23T08:40:06.034Z,19.17
2023-04-23T08:42:57.453Z,19.22
2023-04-23T08:45:27.058Z,19.30
2023-04-23T08:48:51.756Z,19.40
2023-04-23T08:51:22.078Z,19.56
2023-04-23T08:53:52.680Z,19.68
2023-04-23T08:56:22.016Z,19.83
2023-04-23T08:58:51.001Z,20.01
2023-04-23T09:01:19.448Z,20.17
2023-04-23T09:03:48.645Z,20.29
2023-04-23T09:06:16.950Z,20.43
2023-04-23T09:08:46.255Z,20.61
2023-04-23T09:11:16.059Z,20.82
2023-04-23T09:13:44.241Z,21.02
2023-04-23T09:16:12.417Z,21.20
2023-04-23T09:18:40.781Z,21.38
2023-04-23T09:21:09.162Z,21.57
2023-04-23T09:23:39.761Z,21.72
2023-04-23T09:26:08.372Z,21.91
2023-04-23T09:28:37.672Z,22.14
2023-04-23T09:31:08.710Z,22.34
2023-04-23T09:33:36.890Z,22.56
2023-04-23T09:36:12.439Z,22.77
2023-04-23T09:38:41.844Z,22.92
2023-04-23T09:41:22.902Z,23.01
2023-04-23T09:43:54.169Z,23.11
2023-04-23T09:46:37.679Z,23.20
2023-04-23T09:49:08.079Z,23.26
2023-04-23T09:51:54.093Z,23.28
2023-04-23T09:54:23.781Z,23.31
2023-04-23T09:56:54.043Z,23.35
2023-04-23T09:59:45.937Z,23.41
2023-04-23T10:02:16.144Z,23.49
2023-04-23T10:04:44.791Z,23.65
2023-04-23T10:07:20.167Z,23.86
2023-04-23T10:09:48.688Z,24.11
2023-04-23T10:12:39.427Z,24.38
2023-04-23T10:15:06.509Z,24.72
2023-04-23T10:17:38.696Z,25.02
2023-04-23T10:20:10.445Z,25.29
2023-04-23T10:22:39.573Z,25.46
2023-04-23T10:25:12.159Z,25.49
2023-04-23T10:27:53.085Z,25.42
2023-04-23T10:30:23.178Z,25.24
2023-04-23T10:32:51.800Z,25.09
2023-04-23T10:35:20.281Z,24.97
2023-04-23T10:37:48.852Z,24.77
2023-04-23T10:40:22.330Z,24.64
2023-04-23T10:42:51.226Z,24.53
2023-04-23T10:47:54.383Z,24.34
2023-04-23T10:50:31.016Z,24.19
2023-04-23T10:52:59.485Z,24.02
2023-04-23T10:55:29.602Z,23.95
2023-04-23T10:58:02.949Z,23.94
2023-04-23T11:00:52.372Z,23.97
2023-04-23T11:03:44.133Z,23.98
2023-04-23T11:06:40.336Z,23.92
2023-04-23T11:09:31.226Z,23.76
2023-04-23T11:12:01.683Z,23.61
2023-04-23T11:14:38.303Z,23.44
2023-04-23T11:17:09.262Z,23.30
2023-04-23T11:19:41.919Z,23.24
2023-04-23T11:22:20.553Z,23.25
2023-04-23T11:24:50.946Z,23.21
2023-04-23T11:27:19.978Z,23.18
2023-04-23T11:29:48.144Z,23.08
2023-04-23T11:32:18.396Z,22.92
2023-04-23T11:34:48.277Z,22.75
2023-04-23T11:37:18.396Z,22.64
2023-04-23T11:39:47.765Z,22.60
2023-04-23T11:42:17.482Z,22.52
2023-04-23T11:44:46.407Z,22.43
2023-04-23T11:47:16.828Z,22.41
2023-04-23T11:49:46.228Z,22.47
2023-04-23T11:52:14.716Z,22.55
2023-04-23T11:54:43.184Z,22.70
2023-04-23T11:57:12.090Z,22.86
2023-04-23T11:59:40.600Z,23.03
2023-04-23T12:02:09.219Z,23.20
2023-04-23T12:04:40.300Z,23.34
2023-04-23T12:07:19.580Z,23.50
2023-04-23T12:09:51.564Z,23.56
2023-04-23T12:12:20.968Z,23.49
2023-04-23T12:14:49.142Z,23.49
2023-04-23T12:17:17.411Z,23.54
2023-04-23T12:19:45.686Z,23.71
2023-04-23T12:22:13.765Z,23.86
2023-04-23T12:24:51.804Z,24.08
2023-04-23T12:27:22.489Z,24.42
2023-04-23T12:30:00.289Z,24.72
2023-04-23T12:32:28.500Z,25.02
2023-04-23T12:34:57.112Z,25.22
2023-04-23T12:37:27.157Z,25.39
2023-04-23T12:39:57.059Z,25.60
2023-04-23T12:42:26.283Z,25.79
2023-04-23T12:44:57.063Z,25.83
2023-04-23T12:47:25.516Z,25.84
2023-04-23T12:49:55.398Z,25.74
2023-04-23T12:52:23.571Z,25.47
2023-04-23T12:54:56.595Z,25.14
2023-04-23T12:57:25.456Z,24.81
2023-04-23T12:59:55.223Z,24.47
2023-04-23T13:02:24.982Z,24.01
2023-04-23T13:04:59.686Z,23.61
2023-04-23T13:07:28.239Z,23.29
2023-04-23T13:09:57.612Z,23.10
2023-04-23T13:12:26.176Z,23.05
2023-04-23T13:14:54.332Z,23.07
2023-04-23T13:17:23.385Z,23.15
2023-04-23T13:19:51.599Z,23.25
2023-04-23T13:22:19.870Z,23.20
2023-04-23T13:24:48.343Z,23.04
2023-04-23T13:27:16.512Z,22.83
2023-04-23T13:29:44.969Z,22.64
2023-04-23T13:32:13.505Z,22.40
2023-04-23T13:34:42.164Z,22.17
2023-04-23T13:37:10.433Z,21.96
2023-04-23T13:39:41.678Z,21.75
2023-04-23T13:42:10.419Z,21.52
2023-04-23T13:44:38.747Z,21.31
2023-04-23T13:47:07.325Z,21.14
2023-04-23T13:49:36.215Z,20.96
2023-04-23T13:52:07.161Z,20.77
2023-04-23T13:54:39.520Z,20.58
2023-04-23T13:57:08.119Z,20.48
2023-04-23T13:59:36.276Z,20.39
2023-04-23T14:02:04.549Z,20.30
2023-04-23T14:04:32.770Z,20.20
2023-04-23T14:07:01.115Z,20.10
2023-04-23T14:09:30.200Z,20.00
2023-04-23T14:11:58.567Z,19.88
2023-04-23T14:14:26.847Z,19.79
2023-04-23T14:16:55.218Z,19.71
2023-04-23T14:19:24.012Z,19.61
2023-04-23T14:21:52.286Z,19.42
2023-04-23T14:24:28.662Z,19.19
2023-04-23T14:26:57.124Z,18.91
2023-04-23T14:29:30.217Z,18.67
2023-04-23T14:31:58.383Z,18.41
2023-04-23T14:34:27.282Z,18.12
2023-04-23T14:36:55.649Z,17.89
2023-04-23T14:39:23.927Z,17.75
2023-04-23T14:41:52.102Z,17.77
2023-04-23T14:44:20.267Z,18.26
2023-04-23T14:46:51.227Z,18.80
2023-04-23T14:49:20.991Z,19.26
2023-04-23T14:51:51.120Z,19.54
2023-04-23T14:54:19.303Z,19.38
2023-04-23T14:56:47.449Z,19.14
2023-04-23T14:59:15.663Z,18.94
2023-04-23T15:01:44.223Z,18.79
2023-04-23T15:04:12.700Z,18.68
2023-04-23T15:06:41.091Z,18.63
2023-04-23T15:09:09.467Z,18.57
2023-04-23T15:11:39.038Z,18.53
2023-04-23T15:14:30.795Z,18.48
2023-04-23T15:16:59.090Z,18.42
2023-04-23T15:19:27.236Z,18.38
2023-04-23T15:21:55.412Z,18.36
2023-04-23T15:24:23.592Z,18.36
2023-04-23T15:26:53.606Z,18.40
2023-04-23T15:29:21.775Z,18.44
2023-04-23T15:31:52.043Z,18.48
2023-04-23T15:34:20.273Z,18.55
2023-04-23T15:36:48.350Z,18.62
2023-04-23T15:39:16.636Z,18.70
2023-04-23T15:41:46.208Z,18.82
2023-04-23T15:44:14.704Z,19.03
2023-04-23T15:46:42.772Z,19.29
2023-04-23T15:49:10.946Z,19.52
2023-04-23T15:51:39.015Z,19.73
2023-04-23T15:54:08.803Z,19.92
2023-04-23T15:56:37.362Z,20.05
2023-04-23T15:59:06.153Z,20.10
2023-04-23T16:01:34.642Z,20.15
2023-04-23T16:06:34.086Z,20.18
2023-04-23T16:09:03.800Z,20.17
2023-04-23T16:11:32.066Z,20.12
2023-04-23T16:14:00.242Z,20.03
2023-04-23T16:16:28.954Z,19.89
2023-04-23T16:18:57.819Z,19.74
2023-04-23T16:21:28.140Z,19.64
2023-04-23T16:23:56.306Z,19.56
2023-04-23T16:26:24.806Z,19.44
2023-04-23T16:29:05.395Z,19.32
2023-04-23T16:31:40.637Z,19.18
2023-04-23T16:34:08.870Z,19.03
2023-04-23T16:36:37.346Z,18.89
2023-04-23T16:39:05.834Z,18.77
2023-04-23T16:41:34.122Z,18.67
2023-04-23T16:44:02.379Z,18.59
2023-04-23T16:46:31.802Z,18.53
2023-04-23T16:49:00.490Z,18.44
2023-04-23T16:51:29.908Z,18.37
2023-04-23T16:53:58.248Z,18.28
2023-04-23T16:56:26.818Z,18.22
2023-04-23T16:58:54.991Z,18.14
2023-04-23T17:01:23.084Z,18.07
2023-04-23T17:03:51.481Z,18.03
2023-04-23T17:06:28.322Z,17.97
2023-04-23T17:08:58.196Z,17.91
2023-04-23T17:11:27.626Z,17.84
2023-04-23T17:13:56.716Z,17.77
2023-04-23T17:16:28.047Z,17.70
2023-04-23T17:18:57.469Z,17.63
2023-04-23T17:21:26.149Z,17.56
2023-04-23T17:23:54.444Z,17.49
2023-04-23T17:26:22.598Z,17.42
2023-04-23T17:28:51.181Z,17.34
2023-04-23T17:31:19.482Z,17.34
2023-04-23T17:33:49.630Z,17.73
2023-04-23T17:36:17.950Z,18.14
2023-04-23T17:38:46.461Z,18.41
2023-04-23T17:41:14.916Z,18.66
2023-04-23T17:43:43.199Z,18.80
2023-04-23T17:46:11.441Z,18.55
2023-04-23T17:48:40.868Z,18.22
2023-04-23T17:51:09.041Z,17.95
2023-04-23T17:53:37.211Z,17.74
2023-04-23T17:56:05.696Z,17.55
2023-04-23T17:58:35.883Z,17.39
2023-04-23T18:01:04.306Z,17.25
2023-04-23T18:03:32.658Z,17.20
2023-04-23T18:06:01.399Z,17.51
2023-04-23T18:08:30.578Z,17.87
2023-04-23T18:10:59.550Z,18.16
2023-04-23T18:13:27.703Z,18.38
2023-04-23T18:15:56.492Z,18.59
2023-04-23T18:18:24.760Z,18.70
2023-04-23T18:20:53.041Z,18.45
2023-04-23T18:23:22.276Z,18.13
2023-04-23T18:25:50.825Z,17.85
2023-04-23T18:28:19.099Z,17.62
2023-04-23T18:30:47.804Z,17.43
2023-04-23T18:33:16.739Z,17.26
2023-04-23T18:35:48.322Z,17.20
2023-04-23T18:38:32.438Z,17.51
2023-04-23T18:41:02.993Z,17.88
2023-04-23T18:43:34.663Z,18.14
2023-04-23T18:46:02.968Z,18.33
2023-04-23T18:48:34.064Z,18.49
2023-04-23T18:51:13.633Z,18.62
2023-04-23T18:53:41.776Z,18.72
2023-04-23T18:56:10.357Z,18.81
2023-04-23T18:58:38.528Z,18.90
2023-04-23T19:01:06.871Z,18.88
2023-04-23T19:03:35.273Z,18.53
2023-04-23T19:06:07.851Z,18.11
2023-04-23T19:08:36.223Z,17.74
2023-04-23T19:11:05.037Z,17.47
2023-04-23T19:13:33.294Z,17.23
2023-04-23T19:16:01.595Z,17.09
2023-04-23T19:18:30.057Z,17.31
2023-04-23T19:20:58.735Z,17.59
2023-04-23T19:23:26.902Z,17.81
2023-04-23T19:25:55.088Z,17.99
2023-04-23T19:28:24.670Z,18.13
2023-04-23T19:30:53.085Z,18.25
2023-04-23T19:33:21.336Z,18.38
2023-04-23T19:35:49.617Z,18.52
2023-04-23T19:38:18.203Z,18.63
2023-04-23T19:40:46.570Z,18.66
2023-04-23T19:43:15.056Z,18.33
2023-04-23T19:45:43.222Z,17.94
2023-04-23T19:48:11.497Z,17.61
2023-04-23T19:50:39.907Z,17.42
2023-04-23T19:53:08.150Z,17.66
2023-04-23T19:55:36.542Z,17.95
2023-04-23T19:58:07.263Z,18.12
2023-04-23T20:00:41.671Z,18.22
2023-04-23T20:03:10.622Z,18.31
2023-04-23T20:05:39.352Z,18.38
2023-04-23T20:08:14.905Z,18.43
2023-04-23T20:10:43.478Z,18.49
2023-04-23T20:13:11.969Z,18.56
2023-04-23T20:15:40.553Z,18.62
2023-04-23T20:18:08.879Z,18.67
2023-04-23T20:20:37.808Z,18.69
2023-04-23T20:23:05.982Z,18.73
2023-04-23T20:25:36.547Z,18.76
2023-04-23T20:28:05.393Z,18.77
2023-04-23T20:30:33.460Z,18.78
2023-04-23T20:33:01.679Z,18.74
2023-04-23T20:35:31.758Z,18.34
2023-04-23T20:38:01.056Z,17.85
2023-04-23T20:40:34.789Z,17.44
2023-04-23T20:43:04.774Z,17.15
2023-04-23T20:45:34.834Z,17.31
2023-04-23T20:48:03.885Z,17.54
2023-04-23T20:50:32.361Z,17.70
2023-04-23T20:53:00.528Z,17.82
2023-04-23T20:55:28.710Z,17.92
2023-04-23T20:57:56.987Z,17.99
2023-04-23T21:00:25.256Z,18.08
2023-04-23T21:02:54.009Z,18.13
2023-04-23T21:05:22.332Z,18.18
2023-04-23T21:07:51.000Z,18.21
2023-04-23T21:10:19.481Z,18.24
2023-04-23T21:12:47.669Z,18.28
2023-04-23T21:15:16.953Z,18.32
2023-04-23T21:17:45.053Z,18.34
2023-04-23T21:20:13.805Z,18.34
2023-04-23T21:22:41.872Z,18.35
2023-04-23T21:25:10.148Z,18.37
2023-04-23T21:27:38.425Z,18.39
2023-04-23T21:30:14.450Z,18.41
2023-04-23T21:32:42.809Z,18.46
2023-04-23T21:35:11.029Z,18.52
2023-04-23T21:37:39.212Z,18.57
2023-04-23T21:40:10.891Z,18.56
2023-04-23T21:42:39.337Z,18.14
2023-04-23T21:45:08.815Z,17.67
2023-04-23T21:47:37.152Z,17.28
2023-04-23T21:50:06.107Z,16.94
2023-04-23T21:52:34.376Z,16.74
2023-04-23T21:55:02.452Z,16.98
2023-04-23T21:57:30.823Z,17.25
2023-04-23T21:59:59.113Z,17.46
2023-04-23T22:02:27.485Z,17.61
2023-04-23T22:04:56.067Z,17.74
2023-04-23T22:07:24.439Z,17.86
2023-04-23T22:09:52.709Z,17.96
2023-04-23T22:12:20.886Z,18.05
2023-04-23T22:14:48.954Z,18.13
2023-04-23T22:17:19.038Z,18.22
2023-04-23T22:19:47.352Z,18.26
2023-04-23T22:22:15.724Z,18.25
2023-04-23T22:24:43.791Z,18.31
2023-04-23T22:27:12.065Z,18.33
2023-04-23T22:29:40.428Z,18.32
2023-04-23T22:32:08.945Z,18.34
2023-04-23T22:34:37.198Z,18.34
2023-04-23T22:37:05.672Z,18.35
2023-04-23T22:39:33.744Z,18.34
2023-04-23T22:42:03.148Z,18.24
2023-04-23T22:44:31.434Z,18.18
2023-04-23T22:46:59.595Z,18.12
2023-04-23T22:49:27.668Z,18.03
2023-04-23T22:51:55.836Z,17.91
2023-04-23T22:54:24.311Z,17.72
2023-04-23T22:56:53.307Z,17.56
2023-04-23T22:59:21.784Z,17.47
2023-04-23T23:01:49.877Z,17.43
2023-04-23T23:04:18.081Z,17.46
2023-04-23T23:06:46.724Z,17.44
2023-04-23T23:09:14.884Z,17.45
2023-04-23T23:11:43.067Z,17.43
2023-04-23T23:14:11.741Z,17.33
2023-04-23T23:16:40.735Z,17.29
2023-04-23T23:19:08.905Z,17.23
2023-04-23T23:21:37.083Z,17.23
2023-04-23T23:24:05.352Z,17.25
2023-04-23T23:26:33.525Z,17.26
2023-04-23T23:29:01.718Z,17.27
2023-04-23T23:31:29.881Z,17.29
2023-04-23T23:33:58.553Z,17.28
2023-04-23T23:36:28.160Z,17.27
2023-04-23T23:38:56.233Z,17.28
2023-04-23T23:41:24.509Z,17.25
2023-04-23T23:43:53.375Z,17.13
2023-04-23T23:46:21.646Z,16.98
2023-04-23T23:48:49.840Z,16.85
2023-04-23T23:51:18.319Z,16.77
2023-04-23T23:53:46.499Z,16.74
2023-04-23T23:56:14.675Z,16.74
2023-04-23T23:58:42.733Z,16.77
